Time;durP1;ratioP1;P1;durP2;ratioP2;P2;SDS_P1;SDS_P2;PMS_P1;PMS_P2;Temp;Humidity;BMP_temperature;BMP_pressure;BME280_temperature;BME280_humidity;BME280_pressure;Samples;Min_cycle;Max_cycle;Signal;HPM_P1;HPM_P2
2022/02/16 00:01:08;;;;;;;5.25;2.78;;;;;;;4.86;73.03;100010.03;5003858;28;20056;-72
2022/02/16 00:03:35;;;;;;;5.55;2.67;;;;;;;4.86;72.76;100012.66;5001736;28;20034;-72
2022/02/16 00:06:01;;;;;;;5.88;2.85;;;;;;;4.88;72.79;100012.69;5003999;28;20132;-72
2022/02/16 00:08:26;;;;;;;4.50;2.85;;;;;;;4.89;72.88;100011.81;5002554;28;20124;-73
2022/02/16 00:10:52;;;;;;;5.82;2.90;;;;;;;4.95;72.40;100012.75;5002962;28;20038;-72
2022/02/16 00:13:18;;;;;;;5.35;2.60;;;;;;;4.93;72.32;100006.63;5004301;28;20042;-72
2022/02/16 00:15:44;;;;;;;5.80;3.00;;;;;;;4.95;72.52;99997.06;5001266;28;20125;-72
2022/02/16 00:18:09;;;;;;;5.40;2.88;;;;;;;5.03;72.59;99992.75;5003920;28;20122;-72
2022/02/16 00:20:35;;;;;;;6.57;3.22;;;;;;;5.11;72.20;99990.19;5002817;28;20045;-72
2022/02/16 00:23:03;;;;;;;6.07;2.80;;;;;;;5.06;71.61;99986.69;4984410;28;20042;-72
2022/02/16 00:25:28;;;;;;;5.28;2.60;;;;;;;5.18;71.44;99981.50;4999731;28;20029;-72
2022/02/16 00:27:53;;;;;;;5.80;2.70;;;;;;;5.23;71.18;99971.94;5001980;28;20442;-72
2022/02/16 00:30:19;;;;;;;8.43;2.95;;;;;;;5.28;70.62;99970.25;5002954;28;20453;-72
2022/02/16 00:32:45;;;;;;;4.90;2.50;;;;;;;5.32;70.25;99963.31;4985176;28;20042;-71
2022/02/16 00:35:11;;;;;;;5.90;2.53;;;;;;;5.36;70.41;99966.81;4959291;28;20054;-72
2022/02/16 00:37:36;;;;;;;6.80;2.70;;;;;;;5.36;70.79;99951.09;4999931;28;20121;-72
2022/02/16 00:40:03;;;;;;;4.38;2.55;;;;;;;5.38;70.43;99952.00;5001244;28;20434;-72
2022/02/16 00:42:29;;;;;;;7.45;2.63;;;;;;;5.42;70.65;99946.78;5002323;28;20049;-72
2022/02/16 00:44:55;;;;;;;4.05;2.20;;;;;;;5.39;70.14;99953.72;4999684;28;20034;-72
2022/02/16 00:47:20;;;;;;;7.07;2.60;;;;;;;5.45;70.13;99951.16;5002333;28;20038;-72
2022/02/16 00:49:45;;;;;;;6.32;2.30;;;;;;;5.42;69.85;99943.28;5001664;28;20058;-72
2022/02/16 00:52:13;;;;;;;5.32;2.33;;;;;;;5.47;70.00;99944.19;4984536;28;20121;-72
2022/02/16 00:54:40;;;;;;;4.72;1.95;;;;;;;5.56;69.56;99949.47;4963976;28;20027;-72
2022/02/16 00:57:06;;;;;;;5.50;2.10;;;;;;;5.64;69.07;99933.81;4967807;28;20558;-72
2022/02/16 00:59:31;;;;;;;8.05;1.98;;;;;;;5.69;69.08;99938.19;4985385;28;20022;-72
2022/02/16 01:02:03;;;;;;;5.05;1.88;;;;;;;5.71;68.28;99931.22;5005864;28;20030;-72
2022/02/16 01:04:28;;;;;;;5.82;2.10;;;;;;;5.72;68.87;99932.94;4999145;28;20033;-72
2022/02/16 01:06:55;;;;;;;4.53;2.03;;;;;;;5.75;68.28;99928.59;4982479;28;20029;-72
2022/02/16 01:09:21;;;;;;;4.75;2.10;;;;;;;5.77;68.58;99934.72;5002545;28;20026;-72
2022/02/16 01:11:48;;;;;;;4.65;2.17;;;;;;;5.74;68.66;99919.88;4985542;28;20029;-72
2022/02/16 01:14:14;;;;;;;4.75;2.00;;;;;;;5.80;68.18;99921.63;4982758;28;20517;-72
2022/02/16 01:16:50;;;;;;;4.88;1.90;;;;;;;5.84;68.36;99919.03;4984081;28;20030;-72
2022/02/16 01:19:35;;;;;;;4.25;1.80;;;;;;;5.90;67.83;99913.81;4967139;28;20034;-72
2022/02/16 01:22:02;;;;;;;5.85;2.10;;;;;;;5.95;67.66;99911.25;4983486;28;20031;-72
2022/02/16 01:24:29;;;;;;;5.53;2.10;;;;;;;5.98;67.67;99908.63;4966736;28;20026;-72
2022/02/16 01:26:55;;;;;;;5.97;1.60;;;;;;;5.99;67.56;99907.75;4985007;28;20025;-72
2022/02/16 01:29:23;;;;;;;4.45;1.75;;;;;;;6.05;67.71;99904.25;4984937;28;20026;-72
2022/02/16 01:31:55;;;;;;;4.20;1.83;;;;;;;6.05;66.90;99897.31;4982700;28;20133;-71
2022/02/16 01:34:25;;;;;;;5.13;1.90;;;;;;;6.10;66.87;99903.44;4984190;28;20485;-72
2022/02/16 01:36:50;;;;;;;5.57;2.22;;;;;;;6.15;66.87;99893.81;4984654;28;20037;-72
2022/02/16 01:39:15;;;;;;;7.45;2.20;;;;;;;6.18;66.93;99892.06;4982824;28;20461;-72
2022/02/16 01:41:44;;;;;;;5.57;1.83;;;;;;;6.17;66.94;99887.72;4979413;28;20041;-72
2022/02/16 01:44:22;;;;;;;7.25;1.80;;;;;;;6.22;66.61;99881.59;4982776;28;20383;-72
2022/02/16 01:46:49;;;;;;;6.53;2.00;;;;;;;6.29;66.59;99878.13;4963649;28;20031;-72
2022/02/16 01:49:14;;;;;;;6.93;1.90;;;;;;;6.30;66.55;99877.22;4984791;28;20128;-72
2022/02/16 01:51:39;;;;;;;5.57;2.13;;;;;;;6.39;65.98;99878.97;4969317;28;20113;-72
2022/02/16 01:54:06;;;;;;;5.05;2.38;;;;;;;6.42;66.42;99867.63;4982709;28;20038;-72
2022/02/16 01:56:33;;;;;;;4.78;1.90;;;;;;;6.48;65.96;99871.13;4985304;28;20038;-72
2022/02/16 01:58:58;;;;;;;6.63;2.13;;;;;;;6.50;66.36;99866.78;4983139;28;20037;-72
2022/02/16 02:01:47;;;;;;;6.07;2.20;;;;;;;6.54;65.84;99849.28;4997684;28;20043;-72
2022/02/16 02:04:17;;;;;;;6.05;2.03;;;;;;;6.57;65.70;99858.00;4983278;28;20807;-73
2022/02/16 02:06:43;;;;;;;5.88;2.00;;;;;;;6.62;65.64;99850.13;4962977;28;20046;-72
2022/02/16 02:09:12;;;;;;;5.35;2.28;;;;;;;6.66;65.72;99851.91;4986678;28;20711;-73
2022/02/16 02:11:38;;;;;;;7.55;2.60;;;;;;;6.65;65.62;99850.13;4985635;28;20034;-73
2022/02/16 02:14:10;;;;;;;5.20;2.10;;;;;;;6.71;65.28;99844.03;4986812;28;20035;-72
2022/02/16 02:16:46;;;;;;;6.65;2.05;;;;;;;6.76;65.64;99834.41;4987452;28;20034;-72
2022/02/16 02:19:12;;;;;;;7.40;2.10;;;;;;;6.78;65.31;99830.00;4974578;28;20036;-73
2022/02/16 02:21:38;;;;;;;3.92;1.70;;;;;;;6.82;65.33;99826.53;4988028;28;20039;-72
2022/02/16 02:24:04;;;;;;;7.80;1.85;;;;;;;6.87;65.22;99824.75;5005766;28;20125;-72
2022/02/16 02:26:30;;;;;;;5.57;1.95;;;;;;;6.93;64.88;99822.09;5005046;28;20418;-72
2022/02/16 02:28:55;;;;;;;3.90;1.73;;;;;;;6.95;65.14;99824.75;4986683;28;20048;-72
2022/02/16 02:31:47;;;;;;;5.20;1.98;;;;;;;6.92;64.93;99820.38;4966897;28;20086;-72
2022/02/16 02:34:13;;;;;;;4.90;1.90;;;;;;;6.95;65.22;99806.38;4968033;28;20069;-72
2022/02/16 02:36:38;;;;;;;7.20;1.90;;;;;;;6.87;65.74;99814.28;4987876;28;20160;-72
2022/02/16 02:39:04;;;;;;;4.68;2.25;;;;;;;6.91;64.97;99805.50;5005146;28;20038;-72
2022/02/16 02:41:30;;;;;;;5.00;1.80;;;;;;;6.97;64.79;99805.50;4970051;28;20105;-72
2022/02/16 02:43:56;;;;;;;5.30;1.70;;;;;;;7.07;64.94;99794.94;4988494;28;20042;-72
2022/02/16 02:46:21;;;;;;;5.43;2.03;;;;;;;7.00;64.59;99787.13;4986142;28;20034;-72
2022/02/16 02:48:52;;;;;;;6.30;2.00;;;;;;;7.02;64.43;99788.00;4986643;28;20034;-71
2022/02/16 02:51:20;;;;;;;5.35;1.88;;;;;;;6.95;64.27;99775.75;4988641;28;20422;-73
2022/02/16 02:53:45;;;;;;;8.10;1.75;;;;;;;6.98;64.83;99770.50;4985925;28;20026;-72
2022/02/16 02:56:11;;;;;;;3.83;1.73;;;;;;;7.08;64.29;99765.22;4987141;28;20084;-72
2022/02/16 02:58:39;;;;;;;5.47;1.77;;;;;;;7.07;64.71;99764.34;4987742;28;20460;-73
2022/02/16 03:01:05;;;;;;;5.72;1.55;;;;;;;7.09;63.99;99767.84;4985276;28;20030;-72
2022/02/16 03:03:36;;;;;;;5.10;1.50;;;;;;;7.11;63.74;99767.84;4987856;28;20038;-73
2022/02/16 03:06:07;;;;;;;8.05;1.73;;;;;;;7.10;63.57;99761.72;4971974;28;20035;-73
2022/02/16 03:08:33;;;;;;;4.27;1.30;;;;;;;7.16;63.87;99758.19;4985369;28;20522;-73
2022/02/16 03:10:59;;;;;;;5.40;1.48;;;;;;;7.15;63.86;99751.19;5003802;28;20288;-73
2022/02/16 03:13:24;;;;;;;6.00;1.50;;;;;;;7.09;63.92;99749.47;4986886;28;20070;-72
2022/02/16 03:15:57;;;;;;;6.38;1.52;;;;;;;7.11;64.05;99745.09;4984732;28;20042;-73
2022/02/16 03:18:25;;;;;;;4.60;1.50;;;;;;;7.18;63.94;99730.19;5005215;28;20640;-72
2022/02/16 03:20:51;;;;;;;4.53;1.45;;;;;;;7.18;63.89;99730.19;5003300;28;20035;-72
2022/02/16 03:23:18;;;;;;;4.43;1.67;;;;;;;7.15;63.77;99727.56;5003124;28;20049;-72
2022/02/16 03:25:43;;;;;;;5.50;2.40;;;;;;;7.28;66.66;99724.00;4987541;28;20115;-72
2022/02/16 03:28:09;;;;;;;8.25;3.10;;;;;;;7.41;65.63;99725.69;4970391;28;20517;-72
2022/02/16 03:30:35;;;;;;;5.75;2.83;;;;;;;7.45;65.24;99709.03;4986471;28;20028;-72
2022/02/16 03:33:02;;;;;;;5.75;2.70;;;;;;;7.50;65.74;99711.63;5004462;28;20029;-72
2022/02/16 03:35:28;;;;;;;6.45;2.05;;;;;;;7.56;63.38;99710.72;4984700;28;20045;-72
2022/02/16 03:37:54;;;;;;;3.35;1.20;;;;;;;7.53;63.46;99711.59;4988214;28;20038;-72
2022/02/16 03:40:19;;;;;;;5.20;1.35;;;;;;;7.42;63.15;99706.41;4985850;28;20054;-72
2022/02/16 03:42:45;;;;;;;3.67;1.08;;;;;;;7.40;63.06;99705.56;4985561;28;20101;-72
2022/02/16 03:45:10;;;;;;;5.43;1.25;;;;;;;7.29;63.21;99717.88;5004978;28;20078;-72
2022/02/16 03:47:48;;;;;;;4.57;1.50;;;;;;;7.29;63.34;99702.13;4983814;28;20085;-72
2022/02/16 03:50:14;;;;;;;3.05;1.17;;;;;;;7.29;63.30;99694.25;4985211;28;20026;-72
2022/02/16 03:52:39;;;;;;;4.82;1.38;;;;;;;7.31;63.46;99700.38;4965577;28;20076;-72
2022/02/16 03:55:06;;;;;;;4.13;1.42;;;;;;;7.32;63.49;99696.84;4984061;28;20030;-72
2022/02/16 03:57:31;;;;;;;7.80;1.52;;;;;;;7.28;63.05;99697.75;4985849;28;20114;-72
2022/02/16 03:59:57;;;;;;;6.65;1.48;;;;;;;7.28;63.01;99689.88;5004105;28;20036;-72
2022/02/16 04:02:41;;;;;;;4.07;1.20;;;;;;;7.23;62.93;99681.16;4978904;28;20034;-72
2022/02/16 04:05:08;;;;;;;3.05;1.00;;;;;;;7.22;63.35;99679.41;4971476;28;20038;-72
2022/02/16 04:07:34;;;;;;;3.65;1.17;;;;;;;7.27;63.75;99667.13;4987138;28;20033;-72
2022/02/16 04:10:00;;;;;;;3.60;1.67;;;;;;;7.24;63.66;99661.91;4984832;28;20031;-72
2022/02/16 04:12:26;;;;;;;3.03;1.00;;;;;;;7.27;63.64;99667.13;4985538;28;20042;-72
2022/02/16 04:14:52;;;;;;;4.63;1.52;;;;;;;7.24;62.96;99664.53;4964916;28;20059;-72
2022/02/16 04:17:19;;;;;;;4.53;1.23;;;;;;;7.28;63.68;99668.00;4986561;28;20506;-72
2022/02/16 04:19:44;;;;;;;3.35;1.30;;;;;;;7.26;63.55;99665.41;4984451;28;20034;-72
2022/02/16 04:22:14;;;;;;;5.72;1.08;;;;;;;7.21;63.96;99667.19;4985612;28;20133;-72
2022/02/16 04:24:44;;;;;;;3.72;1.10;;;;;;;7.22;63.32;99674.16;4964653;28;20424;-73
2022/02/16 04:27:10;;;;;;;2.47;1.15;;;;;;;7.29;63.02;99667.16;4969212;28;20117;-72
2022/02/16 04:29:35;;;;;;;4.28;1.40;;;;;;;7.29;63.29;99657.50;4985535;28;20554;-72
2022/02/16 04:32:02;;;;;;;4.30;1.30;;;;;;;7.34;63.04;99653.09;4966422;28;20401;-72
2022/02/16 04:34:28;;;;;;;2.42;0.90;;;;;;;7.36;63.15;99650.44;4986058;28;20030;-72
2022/02/16 04:36:53;;;;;;;4.80;1.05;;;;;;;7.34;63.26;99644.38;4980276;28;20063;-72
2022/02/16 04:39:18;;;;;;;2.55;1.00;;;;;;;7.37;63.22;99645.19;4985700;28;20387;-72
2022/02/16 04:41:44;;;;;;;4.10;1.30;;;;;;;7.34;63.22;99642.59;4970442;28;20061;-72
2022/02/16 04:44:13;;;;;;;3.60;0.98;;;;;;;7.43;62.91;99644.28;4980754;28;20475;-72
2022/02/16 04:46:44;;;;;;;3.30;1.00;;;;;;;7.46;62.77;99647.75;4982512;28;20038;-72
2022/02/16 04:49:10;;;;;;;5.10;1.10;;;;;;;7.51;63.10;99645.09;4982854;28;20095;-72
2022/02/16 04:51:36;;;;;;;2.53;1.00;;;;;;;7.56;62.63;99631.94;4983720;28;20557;-72
2022/02/16 04:54:01;;;;;;;4.22;1.02;;;;;;;7.47;62.24;99639.00;4964265;28;20035;-72
2022/02/16 04:56:27;;;;;;;3.35;0.85;;;;;;;7.51;62.67;99641.59;4985410;28;20036;-72
2022/02/16 04:58:53;;;;;;;5.13;1.58;;;;;;;7.56;62.18;99635.41;4970472;28;20402;-71
2022/02/16 05:01:20;;;;;;;4.75;1.35;;;;;;;7.57;62.31;99631.94;4983560;28;20058;-72
2022/02/16 05:03:47;;;;;;;2.88;0.90;;;;;;;7.58;62.23;99633.66;4957537;28;20050;-72
2022/02/16 05:06:13;;;;;;;4.22;0.95;;;;;;;7.58;62.43;99636.28;5002730;28;20033;-72
2022/02/16 05:08:38;;;;;;;3.95;1.70;;;;;;;7.59;62.59;99626.66;4999631;28;20504;-72
2022/02/16 05:11:05;;;;;;;3.35;1.30;;;;;;;7.63;62.58;99628.38;4985380;28;20034;-72
2022/02/16 05:13:52;;;;;;;5.45;1.98;;;;;;;7.59;61.99;99613.53;4984020;28;20509;-72
2022/02/16 05:16:19;;;;;;;4.47;1.40;;;;;;;7.62;62.45;99622.25;4982971;28;20038;-72
2022/02/16 05:18:44;;;;;;;3.72;1.45;;;;;;;7.68;62.23;99610.81;4985521;28;20045;-72
2022/02/16 05:21:12;;;;;;;4.72;1.20;;;;;;;7.64;62.29;99612.59;4977330;28;20028;-71
2022/02/16 05:23:38;;;;;;;3.60;1.38;;;;;;;7.61;62.25;99611.75;4983197;28;20034;-72
2022/02/16 05:26:10;;;;;;;4.57;1.40;;;;;;;7.67;62.39;99601.19;4984243;28;20030;-72
2022/02/16 05:28:35;;;;;;;2.92;1.15;;;;;;;7.63;62.47;99597.72;4984622;28;20052;-72
2022/02/16 05:31:01;;;;;;;3.80;1.17;;;;;;;7.79;62.36;99589.72;4984813;28;20455;-72
2022/02/16 05:33:28;;;;;;;4.13;1.08;;;;;;;7.73;62.67;99598.53;4982287;28;20021;-72
2022/02/16 05:35:58;;;;;;;3.03;1.05;;;;;;;7.76;62.42;99585.34;4984934;28;20084;-72
2022/02/16 05:38:27;;;;;;;3.22;0.82;;;;;;;7.77;62.28;99588.84;4984495;28;20502;-72
2022/02/16 05:40:52;;;;;;;2.20;0.63;;;;;;;7.75;62.18;99586.22;4978053;28;20037;-71
2022/02/16 05:43:19;;;;;;;2.97;0.80;;;;;;;7.75;62.18;99578.34;4979280;28;20036;-72
2022/02/16 05:45:46;;;;;;;3.50;0.70;;;;;;;7.76;62.35;99569.59;4966910;28;20062;-72
2022/02/16 05:48:19;;;;;;;1.08;0.50;;;;;;;7.80;62.67;99567.78;4966875;28;20073;-72
2022/02/16 05:50:49;;;;;;;2.10;0.75;;;;;;;7.81;62.41;99567.78;4985417;28;20494;-72
2022/02/16 05:53:16;;;;;;;1.55;0.60;;;;;;;7.78;62.36;99570.47;4983825;28;20034;-72
2022/02/16 05:55:42;;;;;;;2.33;0.77;;;;;;;7.83;62.32;99563.41;4980576;28;20065;-72
2022/02/16 05:58:08;;;;;;;1.58;0.60;;;;;;;7.78;62.68;99567.84;4998391;28;20042;-72
2022/02/16 06:00:33;;;;;;;4.30;1.95;;;;;;;7.80;62.82;99566.03;4994385;28;20060;-72
2022/02/16 06:02:59;;;;;;;2.35;0.90;;;;;;;7.79;63.06;99566.06;4991906;28;20414;-72
2022/02/16 06:05:26;;;;;;;4.18;1.38;;;;;;;7.85;62.50;99566.00;5001017;28;20105;-72
2022/02/16 06:07:51;;;;;;;2.72;0.93;;;;;;;7.84;62.80;99562.50;4982347;28;20117;-72
2022/02/16 06:10:17;;;;;;;2.72;0.90;;;;;;;7.87;62.86;99556.34;5002537;28;20061;-72
2022/02/16 06:12:44;;;;;;;2.03;0.60;;;;;;;7.79;63.28;99556.44;4983673;28;20034;-72
2022/02/16 06:15:10;;;;;;;4.20;1.35;;;;;;;7.84;63.61;99559.88;5000371;28;20104;-72
2022/02/16 06:17:38;;;;;;;1.85;0.73;;;;;;;7.83;63.49;99552.91;4985171;28;20072;-72
2022/02/16 06:20:07;;;;;;;3.20;0.90;;;;;;;7.78;63.59;99538.94;4968053;28;20038;-72
2022/02/16 06:22:33;;;;;;;4.15;1.02;;;;;;;7.85;63.82;99547.59;4981684;28;20042;-72
2022/02/16 06:24:59;;;;;;;4.18;0.85;;;;;;;7.89;63.49;99547.56;4987486;28;20113;-72
2022/02/16 06:27:25;;;;;;;3.90;1.05;;;;;;;7.82;64.46;99547.63;4991534;28;20073;-71
2022/02/16 06:29:50;;;;;;;4.20;0.93;;;;;;;7.84;64.07;99541.47;4970386;28;20459;-72
2022/02/16 06:32:21;;;;;;;1.98;0.65;;;;;;;7.82;64.73;99545.88;4983091;28;20050;-71
2022/02/16 06:34:49;;;;;;;1.17;0.43;;;;;;;7.86;64.53;99539.72;4966100;28;20086;-72
2022/02/16 06:37:14;;;;;;;3.20;0.70;;;;;;;7.89;64.76;99537.06;4984553;28;20124;-72
2022/02/16 06:39:40;;;;;;;1.98;0.90;;;;;;;7.84;64.48;99541.47;4983120;28;20034;-72
2022/02/16 06:42:06;;;;;;;2.35;0.60;;;;;;;7.85;64.87;99543.22;5000650;28;20046;-72
2022/02/16 06:44:32;;;;;;;2.13;0.90;;;;;;;7.87;65.31;99544.06;4984641;28;20034;-71
2022/02/16 06:46:58;;;;;;;2.22;0.60;;;;;;;7.86;65.13;99531.84;4978268;28;20030;-72
2022/02/16 06:49:23;;;;;;;3.03;0.93;;;;;;;7.83;65.29;99521.38;5001684;28;20034;-72
2022/02/16 06:51:56;;;;;;;4.45;0.63;;;;;;;7.88;65.85;99523.91;4963091;28;20047;-72
2022/02/16 06:54:22;;;;;;;1.88;0.70;;;;;;;7.91;65.73;99513.38;4950400;28;20041;-72
2022/02/16 06:56:47;;;;;;;2.72;0.80;;;;;;;7.87;65.28;99509.06;5002622;28;20034;-72
2022/02/16 06:59:28;;;;;;;3.13;0.95;;;;;;;7.87;65.73;99501.19;4985468;28;20479;-72
2022/02/16 07:01:59;;;;;;;3.50;1.30;;;;;;;7.86;66.73;99502.06;4986832;28;20046;-72
2022/02/16 07:04:27;;;;;;;3.80;0.70;;;;;;;7.85;66.71;99493.31;5004699;28;20049;-72
2022/02/16 07:06:52;;;;;;;3.13;0.90;;;;;;;7.86;66.81;99499.44;4985258;28;20030;-72
2022/02/16 07:09:19;;;;;;;3.92;1.10;;;;;;;7.80;67.58;99484.59;4987787;28;20065;-72
2022/02/16 07:11:47;;;;;;;2.20;0.70;;;;;;;7.84;67.13;99494.19;4986650;28;20033;-72
2022/02/16 07:14:12;;;;;;;1.67;0.75;;;;;;;7.85;67.63;99493.31;4985644;28;20315;-72
2022/02/16 07:16:38;;;;;;;2.88;0.85;;;;;;;7.79;68.09;99479.38;4987990;28;20041;-71
2022/02/16 07:19:04;;;;;;;4.47;0.80;;;;;;;7.76;68.21;99482.06;5003202;28;20030;-71
2022/02/16 07:21:38;;;;;;;2.22;0.85;;;;;;;7.81;67.88;99488.13;4979780;28;20029;-72
2022/02/16 07:24:04;;;;;;;2.33;0.60;;;;;;;7.82;68.53;99481.97;4986462;28;20033;-73
2022/02/16 07:26:29;;;;;;;1.85;0.70;;;;;;;7.81;69.36;99480.25;4983857;28;20563;-72
2022/02/16 07:28:55;;;;;;;4.20;0.80;;;;;;;7.79;69.67;99477.63;4988844;28;20026;-72
2022/02/16 07:31:23;;;;;;;4.03;0.70;;;;;;;7.75;70.07;99481.16;4987144;28;20030;-72
2022/02/16 07:33:48;;;;;;;3.25;1.33;;;;;;;7.73;70.91;99472.44;4993419;28;20080;-72
2022/02/16 07:36:15;;;;;;;3.95;1.05;;;;;;;7.75;70.72;99468.03;4978275;28;20030;-72
2022/02/16 07:38:43;;;;;;;3.65;0.88;;;;;;;7.79;70.74;99472.38;4989549;28;20034;-72
2022/02/16 07:41:08;;;;;;;3.00;1.10;;;;;;;7.72;70.94;99470.69;5001728;28;20512;-72
2022/02/16 07:43:40;;;;;;;8.27;2.97;;;;;;;7.79;71.82;99471.50;4987449;28;20070;-72
2022/02/16 07:46:06;;;;;;;2.83;0.70;;;;;;;7.75;71.51;99460.16;4998598;28;20292;-71
2022/02/16 07:48:33;;;;;;;3.25;0.60;;;;;;;7.83;72.25;99462.69;4985582;28;20041;-72
2022/02/16 07:51:08;;;;;;;2.63;1.20;;;;;;;7.80;71.41;99455.72;4967179;28;20034;-72
2022/02/16 07:53:54;;;;;;;3.65;1.13;;;;;;;7.74;72.26;99453.16;4996570;28;20042;-72
2022/02/16 07:56:20;;;;;;;2.38;0.55;;;;;;;7.74;72.75;99441.78;4972645;28;20041;-72
2022/02/16 07:58:46;;;;;;;3.35;0.90;;;;;;;7.71;73.11;99437.44;5004056;28;20038;-72
2022/02/16 08:01:11;;;;;;;2.40;0.95;;;;;;;7.78;72.91;99430.34;5003855;28;20125;-72
2022/02/16 08:03:36;;;;;;;2.17;0.70;;;;;;;7.74;72.88;99411.16;4980568;28;20038;-72
2022/02/16 08:06:03;;;;;;;3.30;0.82;;;;;;;7.76;73.04;99424.28;4990302;28;20101;-72
2022/02/16 08:08:31;;;;;;;1.38;0.50;;;;;;;7.75;73.06;99426.00;4984531;28;20121;-72
2022/02/16 08:10:57;;;;;;;3.05;0.80;;;;;;;7.79;72.67;99416.34;4979972;28;20073;-72
2022/02/16 08:13:23;;;;;;;2.28;0.70;;;;;;;7.74;74.17;99411.16;4983085;28;20065;-72
2022/02/16 08:16:07;;;;;;;1.80;0.60;;;;;;;7.77;73.78;99412.88;4998797;28;20088;-72
2022/02/16 08:18:34;;;;;;;3.03;0.70;;;;;;;7.70;74.76;99404.19;4983074;28;20034;-72
2022/02/16 08:20:59;;;;;;;1.33;0.50;;;;;;;7.63;74.66;99410.41;4983832;28;20037;-72
2022/02/16 08:23:34;;;;;;;2.85;1.15;;;;;;;7.80;76.40;99397.91;4981937;28;20042;-72
2022/02/16 08:25:59;;;;;;;1.92;0.60;;;;;;;7.88;74.92;99384.69;4984087;28;20425;-72
2022/02/16 08:28:26;;;;;;;1.92;0.40;;;;;;;7.86;74.32;99387.34;4968848;28;20062;-72
2022/02/16 08:30:52;;;;;;;1.85;0.40;;;;;;;7.82;74.26;99382.16;4982637;28;20061;-72
2022/02/16 08:33:27;;;;;;;2.42;0.60;;;;;;;7.67;75.01;99367.47;4984150;28;20077;-72
2022/02/16 08:36:00;;;;;;;2.42;0.85;;;;;;;7.74;75.24;99363.00;4981377;28;20038;-71
2022/02/16 08:38:25;;;;;;;2.47;1.08;;;;;;;7.73;75.81;99358.63;5000840;28;20100;-72
2022/02/16 08:40:51;;;;;;;2.40;0.77;;;;;;;7.81;75.99;99365.53;5002800;28;20045;-72
2022/02/16 08:43:16;;;;;;;5.85;1.90;;;;;;;7.81;77.67;99357.66;5004718;28;20065;-72
2022/02/16 08:45:44;;;;;;;3.47;0.90;;;;;;;7.77;76.39;99352.44;5000924;28;20387;-72
2022/02/16 08:48:10;;;;;;;1.80;0.60;;;;;;;7.76;76.91;99348.09;5003890;28;20033;-72
2022/02/16 08:50:35;;;;;;;3.03;0.65;;;;;;;7.79;75.86;99338.41;5000866;28;20041;-72
2022/02/16 08:53:01;;;;;;;2.65;0.80;;;;;;;7.99;75.81;99324.09;5002159;28;20100;-72
2022/02/16 08:55:26;;;;;;;5.30;0.98;;;;;;;8.09;75.44;99320.44;5001562;28;20042;-72
2022/02/16 08:57:52;;;;;;;2.97;0.93;;;;;;;8.10;74.91;99323.06;4964263;28;20069;-72
2022/02/16 09:00:17;;;;;;;2.25;0.55;;;;;;;8.21;74.84;99296.63;5003538;28;20033;-72
2022/02/16 09:02:43;;;;;;;2.85;0.70;;;;;;;8.30;73.80;99303.47;5001621;28;20045;-71
2022/02/16 09:05:09;;;;;;;2.15;0.50;;;;;;;8.41;74.08;99290.19;5001553;28;20088;-72
2022/02/16 09:07:34;;;;;;;1.40;0.60;;;;;;;8.39;73.30;99299.84;5003020;28;20112;-71
2022/02/16 09:10:03;;;;;;;2.15;0.90;;;;;;;8.37;73.07;99304.25;5000627;28;20411;-71
2022/02/16 09:12:29;;;;;;;3.20;0.80;;;;;;;8.32;72.78;99299.94;5002942;28;20038;-72
2022/02/16 09:14:55;;;;;;;1.52;0.65;;;;;;;8.41;72.76;99298.06;5002001;28;20050;-72
2022/02/16 09:17:21;;;;;;;2.53;0.60;;;;;;;8.32;72.30;99304.31;4983141;28;20034;-72
2022/02/16 09:19:46;;;;;;;7.25;1.35;;;;;;;8.29;73.42;99299.97;5002827;28;20080;-72
2022/02/16 09:22:12;;;;;;;9.77;2.05;;;;;;;8.31;74.35;99299.97;4982789;28;20043;-72
2022/02/16 09:24:38;;;;;;;4.25;0.85;;;;;;;8.24;73.22;99293.94;5001441;28;20425;-71
2022/02/16 09:27:04;;;;;;;2.70;0.90;;;;;;;8.17;73.83;99289.66;5002256;28;20124;-72
2022/02/16 09:29:29;;;;;;;2.92;0.93;;;;;;;8.18;73.54;99269.53;4991374;28;20529;-72
2022/02/16 09:31:54;;;;;;;3.42;0.98;;;;;;;8.15;73.91;99272.19;4995255;28;20042;-71
2022/02/16 09:34:21;;;;;;;3.80;1.00;;;;;;;8.26;73.27;99268.50;4996604;28;20030;-72
2022/02/16 09:36:47;;;;;;;2.45;0.70;;;;;;;8.29;73.16;99263.19;4998705;28;20045;-71
2022/02/16 09:39:12;;;;;;;1.42;0.52;;;;;;;8.40;72.86;99263.03;5001184;28;20077;-71
2022/02/16 09:41:38;;;;;;;2.53;0.70;;;;;;;8.49;72.72;99248.88;4992490;28;20038;-72
2022/02/16 09:44:03;;;;;;;3.22;0.82;;;;;;;8.59;72.24;99236.41;4992532;28;20521;-72
2022/02/16 09:46:29;;;;;;;2.38;0.85;;;;;;;8.71;72.63;99239.66;4988600;28;20057;-72
2022/02/16 09:48:56;;;;;;;2.83;0.70;;;;;;;8.81;72.29;99236.88;4989567;28;20041;-72
2022/02/16 09:51:22;;;;;;;3.33;0.80;;;;;;;8.81;73.17;99227.19;4994322;28;20042;-72
2022/02/16 09:53:47;;;;;;;1.98;0.80;;;;;;;8.96;72.73;99223.38;5001671;28;20038;-72
2022/02/16 09:56:13;;;;;;;2.22;0.70;;;;;;;9.02;72.40;99210.13;5001412;28;20033;-71
2022/02/16 09:58:38;;;;;;;1.85;0.50;;;;;;;9.13;73.19;99209.88;5002027;28;20553;-71
2022/02/16 10:01:09;;;;;;;1.70;0.65;;;;;;;9.25;70.99;99211.38;4999973;28;20033;-72
2022/02/16 10:03:36;;;;;;;1.50;0.60;;;;;;;9.28;70.97;99208.69;4994013;28;20038;-72
2022/02/16 10:06:02;;;;;;;1.63;0.70;;;;;;;9.32;70.70;99208.56;5003303;28;20487;-72
2022/02/16 10:08:47;;;;;;;2.15;0.80;;;;;;;9.34;70.87;99198.88;4998769;28;20049;-72
2022/02/16 10:11:14;;;;;;;3.50;0.60;;;;;;;9.30;70.41;99193.72;5002092;28;20045;-71
2022/02/16 10:13:41;;;;;;;3.38;0.77;;;;;;;9.29;71.21;99178.81;4999555;28;20384;-72
2022/02/16 10:16:07;;;;;;;1.60;0.60;;;;;;;9.30;70.80;99188.44;5001109;28;20049;-72
2022/02/16 10:18:33;;;;;;;1.67;0.70;;;;;;;9.14;70.92;99183.53;5000489;28;20034;-72
2022/02/16 10:21:09;;;;;;;2.13;0.80;;;;;;;9.21;70.57;99177.22;4991814;28;20030;-72
2022/02/16 10:23:43;;;;;;;1.73;0.70;;;;;;;9.31;70.67;99171.75;4996428;28;20398;-72
2022/02/16 10:26:09;;;;;;;1.40;0.68;;;;;;;9.20;69.45;99167.59;5001951;28;20038;-72
2022/02/16 10:28:45;;;;;;;1.38;0.45;;;;;;;9.20;69.29;99175.50;4999568;28;20042;-72
2022/02/16 10:31:11;;;;;;;2.08;0.60;;;;;;;9.20;69.74;99169.38;4994498;28;20121;-72
2022/02/16 10:33:42;;;;;;;2.08;0.50;;;;;;;9.19;68.58;99152.69;5004195;28;20501;-72
2022/02/16 10:36:08;;;;;;;1.40;0.45;;;;;;;9.16;69.48;99147.50;5004377;28;20062;-72
2022/02/16 10:38:52;;;;;;;2.08;0.52;;;;;;;9.04;70.18;99141.63;5004630;28;20069;-72
2022/02/16 10:41:19;;;;;;;1.92;0.60;;;;;;;8.91;72.10;99143.69;5002180;28;20034;-72
2022/02/16 10:43:44;;;;;;;3.35;0.70;;;;;;;8.68;72.73;99136.28;5001566;28;20034;-72
2022/02/16 10:46:29;;;;;;;2.15;0.73;;;;;;;8.72;73.73;99133.56;5005026;28;20175;-72
2022/02/16 10:49:07;;;;;;;1.25;0.47;;;;;;;8.54;74.72;99144.44;5003045;28;20053;-72
2022/02/16 10:51:33;;;;;;;2.72;0.55;;;;;;;8.35;75.93;99131.63;4999034;28;20042;-72
2022/02/16 10:54:19;;;;;;;3.63;0.50;;;;;;;8.42;76.57;99132.41;5001174;28;20397;-72
2022/02/16 10:56:47;;;;;;;7.85;3.75;;;;;;;8.34;76.81;99124.63;4995832;28;20046;-73
2022/02/16 10:59:12;;;;;;;5.15;2.58;;;;;;;8.34;76.93;99119.38;4998302;28;20390;-72
2022/02/16 11:01:39;;;;;;;4.55;1.60;;;;;;;8.29;77.37;99120.38;4998796;28;20037;-72
2022/02/16 11:04:06;;;;;;;2.58;0.77;;;;;;;8.32;78.39;99100.13;5000575;28;20414;-72
2022/02/16 11:06:38;;;;;;;2.40;0.50;;;;;;;8.32;77.87;99094.88;5003084;28;20034;-72
2022/02/16 11:09:05;;;;;;;1.38;0.50;;;;;;;8.26;78.31;99086.28;4999802;28;20042;-72
2022/02/16 11:11:31;;;;;;;2.10;0.60;;;;;;;8.25;77.42;99088.03;5004191;28;20058;-72
2022/02/16 11:13:59;;;;;;;2.40;0.70;;;;;;;8.20;77.52;99084.63;5004981;28;20079;-72
2022/02/16 11:16:25;;;;;;;5.43;0.70;;;;;;;8.21;78.84;99081.09;5002583;28;20068;-72
2022/02/16 11:18:51;;;;;;;3.05;0.63;;;;;;;8.26;78.37;99067.88;5005007;28;20038;-72
2022/02/16 11:21:20;;;;;;;1.17;0.40;;;;;;;8.21;79.54;99065.31;5002355;28;20517;-72
2022/02/16 11:23:48;;;;;;;2.35;0.75;;;;;;;8.16;79.67;99056.66;5001294;28;20530;-72
2022/02/16 11:26:38;;;;;;;3.85;1.63;;;;;;;8.16;80.43;99051.41;4969590;28;20041;-72
2022/02/16 11:29:25;;;;;;;6.32;3.10;;;;;;;8.15;80.20;99033.94;4989443;28;20038;-72
2022/02/16 11:31:52;;;;;;;3.15;0.70;;;;;;;8.15;80.69;99035.66;4999851;28;20022;-72
2022/02/16 11:34:23;;;;;;;2.88;0.70;;;;;;;8.23;79.78;99037.25;4995302;28;20456;-72
2022/02/16 11:36:56;;;;;;;2.22;0.57;;;;;;;8.42;79.75;99018.50;4998114;28;20517;-72
2022/02/16 11:39:49;;;;;;;2.30;0.65;;;;;;;8.47;79.36;99014.00;5002446;28;20061;-72
2022/02/16 11:42:33;;;;;;;2.35;0.60;;;;;;;8.49;78.82;99009.59;5003781;28;20046;-72
2022/02/16 11:45:00;;;;;;;2.38;0.95;;;;;;;8.63;78.15;98998.75;5000286;28;20042;-72